sensor_id;sensor_type;location;lat;lon;timestamp;temperature;humidity
31675;DHT22;18276;45.520;11.018;2023-02-08T00:00:08;0.80;61.20
31675;DHT22;18276;45.520;11.018;2023-02-08T00:02:36;0.80;61.20
31675;DHT22;18276;45.520;11.018;2023-02-08T00:05:02;0.80;61.10
31675;DHT22;18276;45.520;11.018;2023-02-08T00:07:29;0.80;61.10
31675;DHT22;18276;45.520;11.018;2023-02-08T00:09:56;0.80;61.10
31675;DHT22;18276;45.520;11.018;2023-02-08T00:12:23;0.80;61.10
31675;DHT22;18276;45.520;11.018;2023-02-08T00:14:50;0.80;61.20
31675;DHT22;18276;45.520;11.018;2023-02-08T00:17:17;0.70;61.10
31675;DHT22;18276;45.520;11.018;2023-02-08T00:19:43;0.70;61.10
31675;DHT22;18276;45.520;11.018;2023-02-08T00:22:10;0.70;61.20
31675;DHT22;18276;45.520;11.018;2023-02-08T00:24:37;0.60;61.30
31675;DHT22;18276;45.520;11.018;2023-02-08T00:27:04;0.60;61.30
31675;DHT22;18276;45.520;11.018;2023-02-08T00:29:32;0.60;61.30
31675;DHT22;18276;45.520;11.018;2023-02-08T00:31:59;0.60;61.40
31675;DHT22;18276;45.520;11.018;2023-02-08T00:34:27;0.60;61.50
31675;DHT22;18276;45.520;11.018;2023-02-08T00:36:54;0.60;61.50
31675;DHT22;18276;45.520;11.018;2023-02-08T00:39:21;0.60;61.50
31675;DHT22;18276;45.520;11.018;2023-02-08T00:41:50;0.60;61.40
31675;DHT22;18276;45.520;11.018;2023-02-08T00:44:17;0.60;61.30
31675;DHT22;18276;45.520;11.018;2023-02-08T00:46:44;0.60;61.30
31675;DHT22;18276;45.520;11.018;2023-02-08T00:49:11;0.60;61.40
31675;DHT22;18276;45.520;11.018;2023-02-08T00:51:38;0.50;61.50
31675;DHT22;18276;45.520;11.018;2023-02-08T00:54:05;0.50;61.80
31675;DHT22;18276;45.520;11.018;2023-02-08T00:56:31;0.40;61.90
31675;DHT22;18276;45.520;11.018;2023-02-08T00:58:58;0.40;62.00
31675;DHT22;18276;45.520;11.018;2023-02-08T01:01:25;0.40;62.10
31675;DHT22;18276;45.520;11.018;2023-02-08T01:03:52;0.30;62.10
31675;DHT22;18276;45.520;11.018;2023-02-08T01:06:19;0.20;62.10
31675;DHT22;18276;45.520;11.018;2023-02-08T01:08:46;0.10;62.20
31675;DHT22;18276;45.520;11.018;2023-02-08T01:11:15;0.10;62.50
31675;DHT22;18276;45.520;11.018;2023-02-08T01:13:44;0.10;62.70
31675;DHT22;18276;45.520;11.018;2023-02-08T01:16:15;0.10;62.90
31675;DHT22;18276;45.520;11.018;2023-02-08T01:18:42;0.10;62.50
31675;DHT22;18276;45.520;11.018;2023-02-08T01:21:11;0.00;62.40
31675;DHT22;18276;45.520;11.018;2023-02-08T01:23:39;0.00;62.50
31675;DHT22;18276;45.520;11.018;2023-02-08T01:26:06;-0.10;62.50
31675;DHT22;18276;45.520;11.018;2023-02-08T01:28:33;-0.10;62.80
31675;DHT22;18276;45.520;11.018;2023-02-08T01:31:04;-0.10;63.00
31675;DHT22;18276;45.520;11.018;2023-02-08T01:33:32;-0.10;63.20
31675;DHT22;18276;45.520;11.018;2023-02-08T01:35:59;-0.10;63.40
31675;DHT22;18276;45.520;11.018;2023-02-08T01:38:26;-0.20;63.50
31675;DHT22;18276;45.520;11.018;2023-02-08T01:40:53;-0.20;63.40
31675;DHT22;18276;45.520;11.018;2023-02-08T01:43:23;-0.30;63.60
31675;DHT22;18276;45.520;11.018;2023-02-08T01:45:51;-0.30;63.80
31675;DHT22;18276;45.520;11.018;2023-02-08T01:48:51;-0.40;63.90
31675;DHT22;18276;45.520;11.018;2023-02-08T01:51:15;-0.40;64.10
31675;DHT22;18276;45.520;11.018;2023-02-08T01:53:44;-0.50;64.20
31675;DHT22;18276;45.520;11.018;2023-02-08T01:56:13;-0.50;64.30
31675;DHT22;18276;45.520;11.018;2023-02-08T01:58:48;-0.50;64.30
31675;DHT22;18276;45.520;11.018;2023-02-08T02:01:16;-0.50;64.30
31675;DHT22;18276;45.520;11.018;2023-02-08T02:03:43;-0.50;64.30
31675;DHT22;18276;45.520;11.018;2023-02-08T02:06:11;-0.50;64.40
31675;DHT22;18276;45.520;11.018;2023-02-08T02:08:39;-0.50;64.70
31675;DHT22;18276;45.520;11.018;2023-02-08T02:11:10;-0.60;64.90
31675;DHT22;18276;45.520;11.018;2023-02-08T02:13:37;-0.60;65.10
31675;DHT22;18276;45.520;11.018;2023-02-08T02:16:04;-0.70;65.30
31675;DHT22;18276;45.520;11.018;2023-02-08T02:18:31;-0.70;65.40
31675;DHT22;18276;45.520;11.018;2023-02-08T02:44:35;-0.90;66.80
31675;DHT22;18276;45.520;11.018;2023-02-08T02:50:28;-1.00;67.00
31675;DHT22;18276;45.520;11.018;2023-02-08T02:53:00;-0.90;66.90
31675;DHT22;18276;45.520;11.018;2023-02-08T02:55:29;-0.90;66.80
31675;DHT22;18276;45.520;11.018;2023-02-08T02:57:59;-0.90;66.80
31675;DHT22;18276;45.520;11.018;2023-02-08T03:00:28;-0.90;66.90
31675;DHT22;18276;45.520;11.018;2023-02-08T03:02:56;-0.90;66.80
31675;DHT22;18276;45.520;11.018;2023-02-08T03:05:24;-0.90;66.70
31675;DHT22;18276;45.520;11.018;2023-02-08T03:11:10;-0.90;66.70
31675;DHT22;18276;45.520;11.018;2023-02-08T03:21:06;-0.90;66.60
31675;DHT22;18276;45.520;11.018;2023-02-08T03:28:40;-1.00;66.50
31675;DHT22;18276;45.520;11.018;2023-02-08T03:31:23;-1.00;66.70
31675;DHT22;18276;45.520;11.018;2023-02-08T03:34:00;-1.10;66.80
31675;DHT22;18276;45.520;11.018;2023-02-08T03:36:33;-1.10;67.00
31675;DHT22;18276;45.520;11.018;2023-02-08T03:39:03;-1.10;66.90
31675;DHT22;18276;45.520;11.018;2023-02-08T03:41:32;-1.10;66.80
31675;DHT22;18276;45.520;11.018;2023-02-08T03:44:06;-1.10;66.90
31675;DHT22;18276;45.520;11.018;2023-02-08T03:46:36;-1.10;67.00
31675;DHT22;18276;45.520;11.018;2023-02-08T03:49:06;-1.10;67.10
31675;DHT22;18276;45.520;11.018;2023-02-08T03:51:34;-1.10;67.10
31675;DHT22;18276;45.520;11.018;2023-02-08T03:54:02;-1.10;67.30
31675;DHT22;18276;45.520;11.018;2023-02-08T03:59:10;-1.20;67.50
31675;DHT22;18276;45.520;11.018;2023-02-08T04:01:43;-1.20;67.60
31675;DHT22;18276;45.520;11.018;2023-02-08T04:04:11;-1.20;67.50
31675;DHT22;18276;45.520;11.018;2023-02-08T04:06:38;-1.30;67.40
31675;DHT22;18276;45.520;11.018;2023-02-08T04:09:05;-1.20;67.40
31675;DHT22;18276;45.520;11.018;2023-02-08T04:11:32;-1.20;67.20
31675;DHT22;18276;45.520;11.018;2023-02-08T04:13:59;-1.20;66.80
31675;DHT22;18276;45.520;11.018;2023-02-08T04:16:25;-1.20;66.70
31675;DHT22;18276;45.520;11.018;2023-02-08T04:18:52;-1.20;66.70
31675;DHT22;18276;45.520;11.018;2023-02-08T04:21:19;-1.20;66.60
31675;DHT22;18276;45.520;11.018;2023-02-08T04:23:46;-1.20;66.70
31675;DHT22;18276;45.520;11.018;2023-02-08T04:26:13;-1.20;66.80
31675;DHT22;18276;45.520;11.018;2023-02-08T04:28:40;-1.20;66.90
31675;DHT22;18276;45.520;11.018;2023-02-08T04:31:06;-1.30;67.10
31675;DHT22;18276;45.520;11.018;2023-02-08T04:33:33;-1.30;67.10
31675;DHT22;18276;45.520;11.018;2023-02-08T04:36:00;-1.30;67.20
31675;DHT22;18276;45.520;11.018;2023-02-08T04:38:27;-1.30;67.20
31675;DHT22;18276;45.520;11.018;2023-02-08T04:40:54;-1.30;67.30
31675;DHT22;18276;45.520;11.018;2023-02-08T04:43:21;-1.40;67.10
31675;DHT22;18276;45.520;11.018;2023-02-08T04:45:49;-1.30;67.20
31675;DHT22;18276;45.520;11.018;2023-02-08T04:48:16;-1.30;67.10
31675;DHT22;18276;45.520;11.018;2023-02-08T04:50:42;-1.30;66.90
31675;DHT22;18276;45.520;11.018;2023-02-08T04:53:09;-1.30;66.90
31675;DHT22;18276;45.520;11.018;2023-02-08T04:55:36;-1.30;66.80
31675;DHT22;18276;45.520;11.018;2023-02-08T04:58:03;-1.30;67.00
31675;DHT22;18276;45.520;11.018;2023-02-08T05:00:30;-1.30;67.00
31675;DHT22;18276;45.520;11.018;2023-02-08T05:02:57;-1.30;66.90
31675;DHT22;18276;45.520;11.018;2023-02-08T05:05:24;-1.30;66.80
31675;DHT22;18276;45.520;11.018;2023-02-08T05:07:51;-1.20;66.70
31675;DHT22;18276;45.520;11.018;2023-02-08T05:10:18;-1.20;66.50
31675;DHT22;18276;45.520;11.018;2023-02-08T05:12:45;-1.10;66.40
31675;DHT22;18276;45.520;11.018;2023-02-08T05:15:12;-1.10;66.10
31675;DHT22;18276;45.520;11.018;2023-02-08T05:17:39;-1.10;66.00
31675;DHT22;18276;45.520;11.018;2023-02-08T05:20:06;-1.10;66.00
31675;DHT22;18276;45.520;11.018;2023-02-08T05:22:33;-1.10;66.10
31675;DHT22;18276;45.520;11.018;2023-02-08T05:25:00;-1.10;66.20
31675;DHT22;18276;45.520;11.018;2023-02-08T05:27:27;-1.10;66.40
31675;DHT22;18276;45.520;11.018;2023-02-08T05:29:54;-1.20;66.50
31675;DHT22;18276;45.520;11.018;2023-02-08T05:32:24;-1.20;66.70
31675;DHT22;18276;45.520;11.018;2023-02-08T05:34:51;-1.20;66.80
31675;DHT22;18276;45.520;11.018;2023-02-08T05:37:18;-1.20;66.80
31675;DHT22;18276;45.520;11.018;2023-02-08T05:39:45;-1.20;66.80
31675;DHT22;18276;45.520;11.018;2023-02-08T05:42:12;-1.20;66.80
31675;DHT22;18276;45.520;11.018;2023-02-08T05:44:39;-1.20;66.80
31675;DHT22;18276;45.520;11.018;2023-02-08T05:47:06;-1.20;67.50
31675;DHT22;18276;45.520;11.018;2023-02-08T05:49:33;-1.20;66.80
31675;DHT22;18276;45.520;11.018;2023-02-08T05:52:00;-1.20;66.80
31675;DHT22;18276;45.520;11.018;2023-02-08T05:54:27;-1.20;66.80
31675;DHT22;18276;45.520;11.018;2023-02-08T05:56:53;-1.20;66.70
31675;DHT22;18276;45.520;11.018;2023-02-08T05:59:20;-1.20;66.80
31675;DHT22;18276;45.520;11.018;2023-02-08T06:01:47;-1.30;66.80
31675;DHT22;18276;45.520;11.018;2023-02-08T06:04:15;-1.30;66.90
31675;DHT22;18276;45.520;11.018;2023-02-08T06:06:41;-1.30;66.90
31675;DHT22;18276;45.520;11.018;2023-02-08T06:09:08;-1.30;66.90
31675;DHT22;18276;45.520;11.018;2023-02-08T06:11:35;-1.30;67.00
31675;DHT22;18276;45.520;11.018;2023-02-08T06:14:02;-1.40;66.90
31675;DHT22;18276;45.520;11.018;2023-02-08T06:16:30;-1.30;67.00
31675;DHT22;18276;45.520;11.018;2023-02-08T06:18:57;-1.40;67.00
31675;DHT22;18276;45.520;11.018;2023-02-08T06:21:23;-1.30;67.10
31675;DHT22;18276;45.520;11.018;2023-02-08T06:23:50;-1.30;67.10
31675;DHT22;18276;45.520;11.018;2023-02-08T06:26:17;-1.30;67.10
31675;DHT22;18276;45.520;11.018;2023-02-08T06:28:44;-1.40;67.10
31675;DHT22;18276;45.520;11.018;2023-02-08T06:31:11;-1.30;67.20
31675;DHT22;18276;45.520;11.018;2023-02-08T06:33:38;-1.30;67.10
31675;DHT22;18276;45.520;11.018;2023-02-08T06:36:05;-1.20;67.00
31675;DHT22;18276;45.520;11.018;2023-02-08T06:38:32;-1.20;66.80
31675;DHT22;18276;45.520;11.018;2023-02-08T06:40:59;-1.20;66.80
31675;DHT22;18276;45.520;11.018;2023-02-08T06:43:25;-1.10;66.60
31675;DHT22;18276;45.520;11.018;2023-02-08T06:45:52;-1.00;66.40
31675;DHT22;18276;45.520;11.018;2023-02-08T06:48:19;-1.00;66.30
31675;DHT22;18276;45.520;11.018;2023-02-08T06:50:46;-0.90;66.20
31675;DHT22;18276;45.520;11.018;2023-02-08T06:53:13;-0.90;66.10
31675;DHT22;18276;45.520;11.018;2023-02-08T06:55:40;-0.90;66.10
31675;DHT22;18276;45.520;11.018;2023-02-08T06:58:07;-0.80;65.80
31675;DHT22;18276;45.520;11.018;2023-02-08T07:00:34;-0.80;65.50
31675;DHT22;18276;45.520;11.018;2023-02-08T07:03:01;-0.70;65.40
31675;DHT22;18276;45.520;11.018;2023-02-08T07:05:27;-0.70;65.20
31675;DHT22;18276;45.520;11.018;2023-02-08T07:07:54;-0.60;65.00
31675;DHT22;18276;45.520;11.018;2023-02-08T07:10:21;-0.60;64.90
31675;DHT22;18276;45.520;11.018;2023-02-08T07:12:48;-0.60;64.60
31675;DHT22;18276;45.520;11.018;2023-02-08T07:15:15;-0.30;64.80
31675;DHT22;18276;45.520;11.018;2023-02-08T07:17:42;0.60;65.30
31675;DHT22;18276;45.520;11.018;2023-02-08T07:20:09;2.20;63.80
31675;DHT22;18276;45.520;11.018;2023-02-08T07:22:37;3.70;60.80
31675;DHT22;18276;45.520;11.018;2023-02-08T07:25:05;5.10;57.60
31675;DHT22;18276;45.520;11.018;2023-02-08T07:27:32;6.30;54.70
31675;DHT22;18276;45.520;11.018;2023-02-08T07:29:59;7.30;51.50
31675;DHT22;18276;45.520;11.018;2023-02-08T07:32:26;8.10;49.00
31675;DHT22;18276;45.520;11.018;2023-02-08T07:34:53;8.80;47.40
31675;DHT22;18276;45.520;11.018;2023-02-08T07:37:20;9.40;45.80
31675;DHT22;18276;45.520;11.018;2023-02-08T07:39:47;9.90;44.20
31675;DHT22;18276;45.520;11.018;2023-02-08T07:42:14;10.40;42.70
31675;DHT22;18276;45.520;11.018;2023-02-08T07:44:52;10.70;41.90
31675;DHT22;18276;45.520;11.018;2023-02-08T07:47:18;11.00;40.80
31675;DHT22;18276;45.520;11.018;2023-02-08T07:49:45;11.20;40.20
31675;DHT22;18276;45.520;11.018;2023-02-08T07:52:12;11.40;39.80
31675;DHT22;18276;45.520;11.018;2023-02-08T07:54:39;11.50;39.40
31675;DHT22;18276;45.520;11.018;2023-02-08T07:57:06;11.40;39.00
31675;DHT22;18276;45.520;11.018;2023-02-08T07:59:33;11.20;38.80
31675;DHT22;18276;45.520;11.018;2023-02-08T08:02:00;10.90;38.90
31675;DHT22;18276;45.520;11.018;2023-02-08T08:04:27;10.50;39.80
31675;DHT22;18276;45.520;11.018;2023-02-08T08:06:54;9.90;40.50
31675;DHT22;18276;45.520;11.018;2023-02-08T08:09:21;9.40;41.40
31675;DHT22;18276;45.520;11.018;2023-02-08T08:11:49;9.00;42.60
31675;DHT22;18276;45.520;11.018;2023-02-08T08:14:16;8.80;43.40
31675;DHT22;18276;45.520;11.018;2023-02-08T08:16:43;8.80;44.30
31675;DHT22;18276;45.520;11.018;2023-02-08T08:19:10;8.80;44.30
31675;DHT22;18276;45.520;11.018;2023-02-08T08:21:37;8.90;44.80
31675;DHT22;18276;45.520;11.018;2023-02-08T08:24:05;9.20;44.70
31675;DHT22;18276;45.520;11.018;2023-02-08T08:26:32;9.40;44.00
31675;DHT22;18276;45.520;11.018;2023-02-08T08:28:59;9.60;44.10
31675;DHT22;18276;45.520;11.018;2023-02-08T08:31:26;9.90;43.90
31675;DHT22;18276;45.520;11.018;2023-02-08T08:33:54;10.20;43.90
31675;DHT22;18276;45.520;11.018;2023-02-08T08:36:21;10.50;43.40
31675;DHT22;18276;45.520;11.018;2023-02-08T08:38:48;10.70;43.40
31675;DHT22;18276;45.520;11.018;2023-02-08T08:41:16;11.00;43.20
31675;DHT22;18276;45.520;11.018;2023-02-08T08:43:48;11.20;42.00
31675;DHT22;18276;45.520;11.018;2023-02-08T08:46:15;11.40;41.90
31675;DHT22;18276;45.520;11.018;2023-02-08T08:48:42;11.80;41.60
31675;DHT22;18276;45.520;11.018;2023-02-08T08:51:09;12.40;40.30
31675;DHT22;18276;45.520;11.018;2023-02-08T08:53:36;13.00;38.70
31675;DHT22;18276;45.520;11.018;2023-02-08T08:56:03;13.70;37.10
31675;DHT22;18276;45.520;11.018;2023-02-08T08:58:30;14.50;36.10
31675;DHT22;18276;45.520;11.018;2023-02-08T09:00:58;15.50;34.10
31675;DHT22;18276;45.520;11.018;2023-02-08T09:03:26;16.20;31.30
31675;DHT22;18276;45.520;11.018;2023-02-08T09:05:53;16.60;29.60
31675;DHT22;18276;45.520;11.018;2023-02-08T09:08:20;17.20;29.10
31675;DHT22;18276;45.520;11.018;2023-02-08T09:10:47;17.50;28.10
31675;DHT22;18276;45.520;11.018;2023-02-08T09:13:14;17.90;27.70
31675;DHT22;18276;45.520;11.018;2023-02-08T09:15:45;18.30;27.00
31675;DHT22;18276;45.520;11.018;2023-02-08T09:18:12;18.10;26.00
31675;DHT22;18276;45.520;11.018;2023-02-08T09:20:39;18.30;26.40
31675;DHT22;18276;45.520;11.018;2023-02-08T09:23:06;18.50;25.90
31675;DHT22;18276;45.520;11.018;2023-02-08T09:25:33;18.40;25.60
31675;DHT22;18276;45.520;11.018;2023-02-08T09:28:01;18.70;25.50
31675;DHT22;18276;45.520;11.018;2023-02-08T09:30:28;18.90;25.60
31675;DHT22;18276;45.520;11.018;2023-02-08T09:32:55;19.10;25.40
31675;DHT22;18276;45.520;11.018;2023-02-08T09:35:22;18.90;25.00
31675;DHT22;18276;45.520;11.018;2023-02-08T09:37:51;18.40;25.30
31675;DHT22;18276;45.520;11.018;2023-02-08T09:40:22;18.50;25.90
31675;DHT22;18276;45.520;11.018;2023-02-08T09:43:09;19.00;25.10
31675;DHT22;18276;45.520;11.018;2023-02-08T09:45:47;19.20;25.30
31675;DHT22;18276;45.520;11.018;2023-02-08T09:48:28;19.40;24.80
31675;DHT22;18276;45.520;11.018;2023-02-08T09:51:08;19.00;25.00
31675;DHT22;18276;45.520;11.018;2023-02-08T09:53:39;19.10;25.30
31675;DHT22;18276;45.520;11.018;2023-02-08T09:56:10;19.60;24.70
31675;DHT22;18276;45.520;11.018;2023-02-08T09:58:50;19.40;24.30
31675;DHT22;18276;45.520;11.018;2023-02-08T10:01:20;19.40;24.30
31675;DHT22;18276;45.520;11.018;2023-02-08T10:03:47;19.70;23.90
31675;DHT22;18276;45.520;11.018;2023-02-08T10:06:16;19.40;23.60
31675;DHT22;18276;45.520;11.018;2023-02-08T10:08:44;19.40;24.10
31675;DHT22;18276;45.520;11.018;2023-02-08T10:14:05;19.60;23.90
31675;DHT22;18276;45.520;11.018;2023-02-08T10:19:33;19.80;23.50
31675;DHT22;18276;45.520;11.018;2023-02-08T10:30:24;18.70;24.20
31675;DHT22;18276;45.520;11.018;2023-02-08T10:32:59;18.70;24.20
31675;DHT22;18276;45.520;11.018;2023-02-08T10:35:36;18.70;24.60
31675;DHT22;18276;45.520;11.018;2023-02-08T10:38:12;18.30;24.50
31675;DHT22;18276;45.520;11.018;2023-02-08T10:40:43;18.00;24.90
31675;DHT22;18276;45.520;11.018;2023-02-08T10:49:02;16.70;26.90
31675;DHT22;18276;45.520;11.018;2023-02-08T10:51:33;17.20;26.30
31675;DHT22;18276;45.520;11.018;2023-02-08T10:54:00;17.50;25.80
31675;DHT22;18276;45.520;11.018;2023-02-08T10:58:57;17.70;25.80
31675;DHT22;18276;45.520;11.018;2023-02-08T11:01:24;17.80;25.70
31675;DHT22;18276;45.520;11.018;2023-02-08T11:04:01;17.50;25.10
31675;DHT22;18276;45.520;11.018;2023-02-08T11:06:29;17.00;26.20
31675;DHT22;18276;45.520;11.018;2023-02-08T11:08:56;16.90;26.60
31675;DHT22;18276;45.520;11.018;2023-02-08T11:11:25;17.20;26.70
31675;DHT22;18276;45.520;11.018;2023-02-08T11:14:04;17.20;26.40
31675;DHT22;18276;45.520;11.018;2023-02-08T11:16:32;17.00;26.70
31675;DHT22;18276;45.520;11.018;2023-02-08T11:18:59;16.40;27.10
31675;DHT22;18276;45.520;11.018;2023-02-08T11:21:28;16.10;27.50
31675;DHT22;18276;45.520;11.018;2023-02-08T11:23:55;15.80;27.50
31675;DHT22;18276;45.520;11.018;2023-02-08T11:29:16;15.20;27.90
31675;DHT22;18276;45.520;11.018;2023-02-08T11:32:02;14.80;27.90
31675;DHT22;18276;45.520;11.018;2023-02-08T11:34:31;14.40;29.20
31675;DHT22;18276;45.520;11.018;2023-02-08T11:37:00;14.70;29.10
31675;DHT22;18276;45.520;11.018;2023-02-08T11:39:29;14.90;28.40
31675;DHT22;18276;45.520;11.018;2023-02-08T11:41:58;14.70;28.50
31675;DHT22;18276;45.520;11.018;2023-02-08T11:44:27;14.90;28.80
31675;DHT22;18276;45.520;11.018;2023-02-08T11:46:55;15.00;28.40
31675;DHT22;18276;45.520;11.018;2023-02-08T11:49:23;14.80;28.30
31675;DHT22;18276;45.520;11.018;2023-02-08T11:51:51;14.90;28.70
31675;DHT22;18276;45.520;11.018;2023-02-08T11:54:31;14.80;28.40
31675;DHT22;18276;45.520;11.018;2023-02-08T11:57:02;15.00;28.50
31675;DHT22;18276;45.520;11.018;2023-02-08T11:59:29;15.30;28.00
31675;DHT22;18276;45.520;11.018;2023-02-08T12:01:56;15.50;28.30
31675;DHT22;18276;45.520;11.018;2023-02-08T12:04:23;16.00;28.10
31675;DHT22;18276;45.520;11.018;2023-02-08T12:07:08;16.30;27.30
31675;DHT22;18276;45.520;11.018;2023-02-08T12:12:13;16.30;27.20
31675;DHT22;18276;45.520;11.018;2023-02-08T12:22:06;16.60;27.00
31675;DHT22;18276;45.520;11.018;2023-02-08T12:30:06;17.50;26.70
31675;DHT22;18276;45.520;11.018;2023-02-08T12:35:16;18.40;25.70
31675;DHT22;18276;45.520;11.018;2023-02-08T12:38:09;18.50;25.80
31675;DHT22;18276;45.520;11.018;2023-02-08T12:41:07;18.60;25.40
31675;DHT22;18276;45.520;11.018;2023-02-08T12:48:55;18.30;26.00
31675;DHT22;18276;45.520;11.018;2023-02-08T12:53:57;18.90;25.40
31675;DHT22;18276;45.520;11.018;2023-02-08T12:56:29;19.10;24.90
31675;DHT22;18276;45.520;11.018;2023-02-08T12:58:59;19.10;24.90
31675;DHT22;18276;45.520;11.018;2023-02-08T13:01:42;19.20;25.10
31675;DHT22;18276;45.520;11.018;2023-02-08T13:06:41;19.70;25.20
31675;DHT22;18276;45.520;11.018;2023-02-08T13:09:22;20.00;24.70
31675;DHT22;18276;45.520;11.018;2023-02-08T13:11:56;20.00;24.30
31675;DHT22;18276;45.520;11.018;2023-02-08T13:16:52;19.10;24.90
31675;DHT22;18276;45.520;11.018;2023-02-08T13:19:31;18.60;25.20
31675;DHT22;18276;45.520;11.018;2023-02-08T13:22:01;18.20;25.50
31675;DHT22;18276;45.520;11.018;2023-02-08T13:24:32;17.40;26.10
31675;DHT22;18276;45.520;11.018;2023-02-08T13:26:59;16.60;26.80
31675;DHT22;18276;45.520;11.018;2023-02-08T13:29:27;16.30;27.60
31675;DHT22;18276;45.520;11.018;2023-02-08T13:32:00;16.20;27.70
31675;DHT22;18276;45.520;11.018;2023-02-08T13:34:31;16.30;28.20
31675;DHT22;18276;45.520;11.018;2023-02-08T13:36:59;16.50;27.90
31675;DHT22;18276;45.520;11.018;2023-02-08T13:41:54;16.70;27.00
31675;DHT22;18276;45.520;11.018;2023-02-08T13:44:25;16.30;26.90
31675;DHT22;18276;45.520;11.018;2023-02-08T13:46:55;15.90;27.50
31675;DHT22;18276;45.520;11.018;2023-02-08T13:52:08;16.10;27.60
31675;DHT22;18276;45.520;11.018;2023-02-08T13:54:36;16.30;27.50
31675;DHT22;18276;45.520;11.018;2023-02-08T13:57:04;16.40;27.50
31675;DHT22;18276;45.520;11.018;2023-02-08T14:00:14;16.30;27.10
31675;DHT22;18276;45.520;11.018;2023-02-08T14:02:37;15.80;27.30
31675;DHT22;18276;45.520;11.018;2023-02-08T14:08:05;15.70;28.00
31675;DHT22;18276;45.520;11.018;2023-02-08T14:10:38;16.40;27.60
31675;DHT22;18276;45.520;11.018;2023-02-08T14:13:15;16.50;26.60
31675;DHT22;18276;45.520;11.018;2023-02-08T14:15:45;16.00;26.60
31675;DHT22;18276;45.520;11.018;2023-02-08T14:18:25;15.70;26.80
31675;DHT22;18276;45.520;11.018;2023-02-08T14:21:28;15.70;26.80
31675;DHT22;18276;45.520;11.018;2023-02-08T14:23:43;15.70;26.70
31675;DHT22;18276;45.520;11.018;2023-02-08T14:26:17;15.30;26.70
31675;DHT22;18276;45.520;11.018;2023-02-08T14:28:46;15.10;26.80
31675;DHT22;18276;45.520;11.018;2023-02-08T14:31:19;14.40;27.30
31675;DHT22;18276;45.520;11.018;2023-02-08T14:33:49;14.00;27.90
31675;DHT22;18276;45.520;11.018;2023-02-08T14:39:03;13.50;28.60
31675;DHT22;18276;45.520;11.018;2023-02-08T14:41:40;13.10;28.90
31675;DHT22;18276;45.520;11.018;2023-02-08T14:46:53;12.10;30.40
31675;DHT22;18276;45.520;11.018;2023-02-08T14:49:20;11.80;30.90
31675;DHT22;18276;45.520;11.018;2023-02-08T14:52:29;11.70;31.60
31675;DHT22;18276;45.520;11.018;2023-02-08T14:54:40;11.60;32.10
31675;DHT22;18276;45.520;11.018;2023-02-08T14:57:28;11.60;32.50
31675;DHT22;18276;45.520;11.018;2023-02-08T14:59:58;11.60;32.50
31675;DHT22;18276;45.520;11.018;2023-02-08T15:02:25;11.50;32.90
31675;DHT22;18276;45.520;11.018;2023-02-08T15:04:57;11.60;33.20
31675;DHT22;18276;45.520;11.018;2023-02-08T15:07:40;11.50;33.40
31675;DHT22;18276;45.520;11.018;2023-02-08T15:10:11;11.10;33.40
31675;DHT22;18276;45.520;11.018;2023-02-08T15:12:38;10.30;33.70
31675;DHT22;18276;45.520;11.018;2023-02-08T15:15:06;9.50;35.00
31675;DHT22;18276;45.520;11.018;2023-02-08T15:17:42;8.70;36.00
31675;DHT22;18276;45.520;11.018;2023-02-08T15:20:27;8.10;37.10
31675;DHT22;18276;45.520;11.018;2023-02-08T15:23:01;7.80;37.90
31675;DHT22;18276;45.520;11.018;2023-02-08T15:25:33;7.50;38.90
31675;DHT22;18276;45.520;11.018;2023-02-08T15:28:01;7.20;39.60
31675;DHT22;18276;45.520;11.018;2023-02-08T15:30:32;6.90;39.80
31675;DHT22;18276;45.520;11.018;2023-02-08T15:33:00;6.70;40.20
31675;DHT22;18276;45.520;11.018;2023-02-08T15:35:27;6.50;40.20
31675;DHT22;18276;45.520;11.018;2023-02-08T15:37:54;6.40;40.40
31675;DHT22;18276;45.520;11.018;2023-02-08T15:40:28;6.30;40.40
31675;DHT22;18276;45.520;11.018;2023-02-08T15:43:29;6.30;41.00
31675;DHT22;18276;45.520;11.018;2023-02-08T15:45:56;6.20;41.30
31675;DHT22;18276;45.520;11.018;2023-02-08T15:48:24;6.10;41.70
31675;DHT22;18276;45.520;11.018;2023-02-08T15:50:51;6.00;42.20
31675;DHT22;18276;45.520;11.018;2023-02-08T15:53:19;5.90;42.30
31675;DHT22;18276;45.520;11.018;2023-02-08T15:55:56;5.90;42.70
31675;DHT22;18276;45.520;11.018;2023-02-08T16:00:57;5.70;43.10
31675;DHT22;18276;45.520;11.018;2023-02-08T16:03:25;5.70;43.90
31675;DHT22;18276;45.520;11.018;2023-02-08T16:05:55;5.60;44.00
31675;DHT22;18276;45.520;11.018;2023-02-08T16:08:26;5.50;44.20
31675;DHT22;18276;45.520;11.018;2023-02-08T16:13:36;5.40;44.50
31675;DHT22;18276;45.520;11.018;2023-02-08T16:16:22;5.30;44.80
31675;DHT22;18276;45.520;11.018;2023-02-08T16:18:58;5.20;45.30
31675;DHT22;18276;45.520;11.018;2023-02-08T16:26:43;5.00;45.70
31675;DHT22;18276;45.520;11.018;2023-02-08T16:29:18;4.90;46.10
31675;DHT22;18276;45.520;11.018;2023-02-08T16:31:46;4.80;46.40
31675;DHT22;18276;45.520;11.018;2023-02-08T16:34:17;4.70;46.60
31675;DHT22;18276;45.520;11.018;2023-02-08T16:36:45;4.60;47.00
31675;DHT22;18276;45.520;11.018;2023-02-08T16:44:14;4.40;47.10
31675;DHT22;18276;45.520;11.018;2023-02-08T16:46:44;4.30;47.30
31675;DHT22;18276;45.520;11.018;2023-02-08T16:49:11;4.30;47.60
31675;DHT22;18276;45.520;11.018;2023-02-08T16:51:38;4.20;47.80
31675;DHT22;18276;45.520;11.018;2023-02-08T16:54:10;4.20;47.90
31675;DHT22;18276;45.520;11.018;2023-02-08T16:56:38;4.10;47.90
31675;DHT22;18276;45.520;11.018;2023-02-08T16:59:05;4.00;48.00
31675;DHT22;18276;45.520;11.018;2023-02-08T17:01:32;3.90;48.40
31675;DHT22;18276;45.520;11.018;2023-02-08T17:03:59;3.90;48.60
31675;DHT22;18276;45.520;11.018;2023-02-08T17:08:57;3.80;48.50
31675;DHT22;18276;45.520;11.018;2023-02-08T17:11:24;3.80;49.10
31675;DHT22;18276;45.520;11.018;2023-02-08T17:13:51;3.70;49.00
31675;DHT22;18276;45.520;11.018;2023-02-08T17:16:19;3.70;49.10
31675;DHT22;18276;45.520;11.018;2023-02-08T17:18:47;3.60;49.20
31675;DHT22;18276;45.520;11.018;2023-02-08T17:21:14;3.60;49.50
31675;DHT22;18276;45.520;11.018;2023-02-08T17:23:41;3.60;49.50
31675;DHT22;18276;45.520;11.018;2023-02-08T17:26:11;3.60;49.60
31675;DHT22;18276;45.520;11.018;2023-02-08T17:28:39;3.50;49.90
31675;DHT22;18276;45.520;11.018;2023-02-08T17:31:05;3.50;50.10
31675;DHT22;18276;45.520;11.018;2023-02-08T17:33:32;3.50;50.30
31675;DHT22;18276;45.520;11.018;2023-02-08T17:36:02;3.40;50.50
31675;DHT22;18276;45.520;11.018;2023-02-08T17:38:29;3.40;51.60
31675;DHT22;18276;45.520;11.018;2023-02-08T17:40:56;3.40;51.00
31675;DHT22;18276;45.520;11.018;2023-02-08T17:43:25;3.30;50.90
31675;DHT22;18276;45.520;11.018;2023-02-08T17:45:52;3.30;51.10